sensor_id;sensor_type;location;lat;lon;timestamp;P1;durP1;ratioP1;P2;durP2;ratioP2
7047;SDS011;3565;53.254;10.352;2023-05-07T00:01:08;13.93;;;10.53;;
7047;SDS011;3565;53.254;10.352;2023-05-07T00:03:37;13.80;;;10.63;;
7047;SDS011;3565;53.254;10.352;2023-05-07T00:06:06;14.73;;;11.10;;
7047;SDS011;3565;53.254;10.352;2023-05-07T00:08:36;15.73;;;11.03;;
7047;SDS011;3565;53.254;10.352;2023-05-07T00:11:15;14.80;;;10.60;;
7047;SDS011;3565;53.254;10.352;2023-05-07T00:16:21;13.33;;;10.93;;
7047;SDS011;3565;53.254;10.352;2023-05-07T00:18:52;12.93;;;10.77;;
7047;SDS011;3565;53.254;10.352;2023-05-07T00:21:21;13.07;;;11.50;;
7047;SDS011;3565;53.254;10.352;2023-05-07T00:26:30;12.77;;;10.63;;
7047;SDS011;3565;53.254;10.352;2023-05-07T00:28:58;12.77;;;10.47;;
7047;SDS011;3565;53.254;10.352;2023-05-07T00:31:39;13.47;;;10.70;;
7047;SDS011;3565;53.254;10.352;2023-05-07T00:36:46;12.00;;;10.57;;
7047;SDS011;3565;53.254;10.352;2023-05-07T00:39:15;12.17;;;10.07;;
7047;SDS011;3565;53.254;10.352;2023-05-07T00:41:53;12.33;;;10.10;;
7047;SDS011;3565;53.254;10.352;2023-05-07T00:44:23;12.37;;;10.63;;
7047;SDS011;3565;53.254;10.352;2023-05-07T00:46:52;12.73;;;10.07;;
7047;SDS011;3565;53.254;10.352;2023-05-07T00:49:34;12.30;;;10.17;;
7047;SDS011;3565;53.254;10.352;2023-05-07T00:54:43;13.03;;;11.13;;
7047;SDS011;3565;53.254;10.352;2023-05-07T00:57:13;11.30;;;9.70;;
7047;SDS011;3565;53.254;10.352;2023-05-07T00:59:53;12.73;;;10.43;;
7047;SDS011;3565;53.254;10.352;2023-05-07T01:02:24;13.50;;;10.43;;
7047;SDS011;3565;53.254;10.352;2023-05-07T01:07:31;14.57;;;10.80;;
7047;SDS011;3565;53.254;10.352;2023-05-07T01:12:38;12.67;;;10.67;;
7047;SDS011;3565;53.254;10.352;2023-05-07T01:15:09;11.80;;;10.13;;
7047;SDS011;3565;53.254;10.352;2023-05-07T01:17:48;12.67;;;10.63;;
7047;SDS011;3565;53.254;10.352;2023-05-07T01:22:55;13.07;;;11.13;;
7047;SDS011;3565;53.254;10.352;2023-05-07T01:25:27;11.83;;;9.93;;
7047;SDS011;3565;53.254;10.352;2023-05-07T01:27:56;13.70;;;11.13;;
7047;SDS011;3565;53.254;10.352;2023-05-07T01:30:38;13.37;;;10.80;;
7047;SDS011;3565;53.254;10.352;2023-05-07T01:35:48;13.60;;;11.13;;
7047;SDS011;3565;53.254;10.352;2023-05-07T01:38:19;14.67;;;10.97;;
7047;SDS011;3565;53.254;10.352;2023-05-07T01:43:30;13.37;;;11.27;;
7047;SDS011;3565;53.254;10.352;2023-05-07T01:45:59;13.13;;;10.90;;
7047;SDS011;3565;53.254;10.352;2023-05-07T01:48:39;13.03;;;10.60;;
7047;SDS011;3565;53.254;10.352;2023-05-07T01:53:48;13.57;;;11.67;;
7047;SDS011;3565;53.254;10.352;2023-05-07T01:56:19;12.60;;;10.77;;
7047;SDS011;3565;53.254;10.352;2023-05-07T01:58:48;12.70;;;11.10;;
7047;SDS011;3565;53.254;10.352;2023-05-07T02:03:57;14.57;;;12.10;;
7047;SDS011;3565;53.254;10.352;2023-05-07T02:06:26;14.23;;;11.77;;
7047;SDS011;3565;53.254;10.352;2023-05-07T02:09:06;13.53;;;11.70;;
7047;SDS011;3565;53.254;10.352;2023-05-07T02:11:35;15.13;;;12.20;;
7047;SDS011;3565;53.254;10.352;2023-05-07T02:16:41;13.93;;;12.37;;
7047;SDS011;3565;53.254;10.352;2023-05-07T02:19:10;16.33;;;12.43;;
7047;SDS011;3565;53.254;10.352;2023-05-07T02:21:39;14.73;;;12.67;;
7047;SDS011;3565;53.254;10.352;2023-05-07T02:26:46;13.97;;;12.20;;
7047;SDS011;3565;53.254;10.352;2023-05-07T02:29:16;14.97;;;12.43;;
7047;SDS011;3565;53.254;10.352;2023-05-07T02:34:24;16.10;;;11.83;;
7047;SDS011;3565;53.254;10.352;2023-05-07T02:39:34;15.10;;;12.37;;
7047;SDS011;3565;53.254;10.352;2023-05-07T02:42:03;16.83;;;12.63;;
7047;SDS011;3565;53.254;10.352;2023-05-07T02:44:32;14.13;;;11.77;;
7047;SDS011;3565;53.254;10.352;2023-05-07T02:49:39;14.80;;;13.00;;
7047;SDS011;3565;53.254;10.352;2023-05-07T02:54:46;17.13;;;13.20;;
7047;SDS011;3565;53.254;10.352;2023-05-07T02:57:15;15.87;;;12.63;;
7047;SDS011;3565;53.254;10.352;2023-05-07T02:59:53;17.87;;;12.50;;
7047;SDS011;3565;53.254;10.352;2023-05-07T03:05:00;16.23;;;13.07;;
7047;SDS011;3565;53.254;10.352;2023-05-07T03:07:29;14.27;;;12.17;;
7047;SDS011;3565;53.254;10.352;2023-05-07T03:10:09;13.57;;;11.90;;
7047;SDS011;3565;53.254;10.352;2023-05-07T03:15:15;16.07;;;12.93;;
7047;SDS011;3565;53.254;10.352;2023-05-07T03:17:45;14.57;;;12.00;;
7047;SDS011;3565;53.254;10.352;2023-05-07T03:22:51;16.10;;;12.93;;
7047;SDS011;3565;53.254;10.352;2023-05-07T03:25:21;16.67;;;12.50;;
7047;SDS011;3565;53.254;10.352;2023-05-07T03:27:50;14.67;;;12.07;;
7047;SDS011;3565;53.254;10.352;2023-05-07T03:30:28;14.33;;;12.20;;
7047;SDS011;3565;53.254;10.352;2023-05-07T03:35:34;16.40;;;12.67;;
7047;SDS011;3565;53.254;10.352;2023-05-07T03:38:04;14.93;;;12.33;;
7047;SDS011;3565;53.254;10.352;2023-05-07T03:40:44;15.33;;;12.37;;
7047;SDS011;3565;53.254;10.352;2023-05-07T03:43:13;15.67;;;12.10;;
7047;SDS011;3565;53.254;10.352;2023-05-07T03:48:22;15.40;;;11.77;;
7047;SDS011;3565;53.254;10.352;2023-05-07T03:53:29;15.63;;;12.30;;
7047;SDS011;3565;53.254;10.352;2023-05-07T03:55:58;14.37;;;12.30;;
7047;SDS011;3565;53.254;10.352;2023-05-07T03:58:36;15.50;;;12.83;;
7047;SDS011;3565;53.254;10.352;2023-05-07T04:01:05;16.13;;;12.27;;
7047;SDS011;3565;53.254;10.352;2023-05-07T04:03:35;15.83;;;13.00;;
7047;SDS011;3565;53.254;10.352;2023-05-07T04:08:41;16.33;;;12.13;;
7047;SDS011;3565;53.254;10.352;2023-05-07T04:13:48;14.43;;;11.90;;
7047;SDS011;3565;53.254;10.352;2023-05-07T04:16:17;14.40;;;12.03;;
7047;SDS011;3565;53.254;10.352;2023-05-07T04:18:46;15.07;;;12.10;;
7047;SDS011;3565;53.254;10.352;2023-05-07T04:21:30;17.57;;;11.97;;
7047;SDS011;3565;53.254;10.352;2023-05-07T04:26:36;17.53;;;12.97;;
7047;SDS011;3565;53.254;10.352;2023-05-07T04:29:06;16.23;;;13.17;;
7047;SDS011;3565;53.254;10.352;2023-05-07T04:31:44;16.57;;;12.73;;
7047;SDS011;3565;53.254;10.352;2023-05-07T04:36:51;14.90;;;12.17;;
7047;SDS011;3565;53.254;10.352;2023-05-07T04:39:39;16.37;;;13.07;;
7047;SDS011;3565;53.254;10.352;2023-05-07T04:44:45;15.57;;;11.97;;
7047;SDS011;3565;53.254;10.352;2023-05-07T04:47:14;15.83;;;12.33;;
7047;SDS011;3565;53.254;10.352;2023-05-07T04:49:54;15.87;;;12.17;;
7047;SDS011;3565;53.254;10.352;2023-05-07T04:55:00;15.83;;;12.03;;
7047;SDS011;3565;53.254;10.352;2023-05-07T04:57:29;14.30;;;11.87;;
7047;SDS011;3565;53.254;10.352;2023-05-07T05:02:36;14.93;;;11.43;;
7047;SDS011;3565;53.254;10.352;2023-05-07T05:05:07;15.30;;;12.07;;
7047;SDS011;3565;53.254;10.352;2023-05-07T05:07:46;15.47;;;11.73;;
7047;SDS011;3565;53.254;10.352;2023-05-07T05:12:53;15.83;;;11.90;;
7047;SDS011;3565;53.254;10.352;2023-05-07T05:15:22;13.37;;;11.43;;
7047;SDS011;3565;53.254;10.352;2023-05-07T05:17:51;13.70;;;11.67;;
7047;SDS011;3565;53.254;10.352;2023-05-07T05:20:32;13.53;;;11.33;;
7047;SDS011;3565;53.254;10.352;2023-05-07T05:23:10;14.33;;;11.73;;
7047;SDS011;3565;53.254;10.352;2023-05-07T05:25:39;13.27;;;10.80;;
7047;SDS011;3565;53.254;10.352;2023-05-07T05:28:18;14.73;;;11.53;;
7047;SDS011;3565;53.254;10.352;2023-05-07T05:30:47;13.77;;;10.77;;
7047;SDS011;3565;53.254;10.352;2023-05-07T05:35:54;13.83;;;11.03;;
7047;SDS011;3565;53.254;10.352;2023-05-07T05:38:22;14.97;;;11.20;;
7047;SDS011;3565;53.254;10.352;2023-05-07T05:40:52;13.03;;;10.83;;
7047;SDS011;3565;53.254;10.352;2023-05-07T05:43:22;14.33;;;11.77;;
7047;SDS011;3565;53.254;10.352;2023-05-07T05:48:29;13.97;;;11.27;;
7047;SDS011;3565;53.254;10.352;2023-05-07T05:53:35;13.73;;;10.70;;
7047;SDS011;3565;53.254;10.352;2023-05-07T05:56:05;14.17;;;11.17;;
7047;SDS011;3565;53.254;10.352;2023-05-07T05:58:46;13.37;;;10.63;;
7047;SDS011;3565;53.254;10.352;2023-05-07T06:03:52;13.63;;;10.73;;
7047;SDS011;3565;53.254;10.352;2023-05-07T06:06:21;13.77;;;11.10;;
7047;SDS011;3565;53.254;10.352;2023-05-07T06:08:50;13.80;;;10.20;;
7047;SDS011;3565;53.254;10.352;2023-05-07T06:11:19;13.77;;;10.80;;
7047;SDS011;3565;53.254;10.352;2023-05-07T06:16:27;13.60;;;10.13;;
7047;SDS011;3565;53.254;10.352;2023-05-07T06:18:56;14.00;;;9.97;;
7047;SDS011;3565;53.254;10.352;2023-05-07T06:21:34;12.27;;;10.27;;
7047;SDS011;3565;53.254;10.352;2023-05-07T06:26:41;18.77;;;9.90;;
7047;SDS011;3565;53.254;10.352;2023-05-07T06:29:10;13.20;;;10.57;;
7047;SDS011;3565;53.254;10.352;2023-05-07T06:31:48;14.30;;;10.60;;
7047;SDS011;3565;53.254;10.352;2023-05-07T06:34:17;12.77;;;10.53;;
7047;SDS011;3565;53.254;10.352;2023-05-07T06:36:55;12.77;;;9.70;;
7047;SDS011;3565;53.254;10.352;2023-05-07T06:39:25;12.07;;;9.60;;
7047;SDS011;3565;53.254;10.352;2023-05-07T06:44:31;12.23;;;10.10;;
7047;SDS011;3565;53.254;10.352;2023-05-07T06:47:01;11.50;;;9.70;;
7047;SDS011;3565;53.254;10.352;2023-05-07T06:49:40;11.53;;;9.43;;
7047;SDS011;3565;53.254;10.352;2023-05-07T06:54:46;11.43;;;9.07;;
7047;SDS011;3565;53.254;10.352;2023-05-07T06:57:15;13.03;;;10.00;;
7047;SDS011;3565;53.254;10.352;2023-05-07T06:59:53;12.27;;;9.83;;
7047;SDS011;3565;53.254;10.352;2023-05-07T07:05:06;12.20;;;9.17;;
7047;SDS011;3565;53.254;10.352;2023-05-07T07:07:35;11.17;;;9.40;;
7047;SDS011;3565;53.254;10.352;2023-05-07T07:12:42;11.07;;;9.53;;
7047;SDS011;3565;53.254;10.352;2023-05-07T07:15:11;11.63;;;9.70;;
7047;SDS011;3565;53.254;10.352;2023-05-07T07:17:49;12.87;;;9.03;;
7047;SDS011;3565;53.254;10.352;2023-05-07T07:22:55;11.43;;;9.23;;
7047;SDS011;3565;53.254;10.352;2023-05-07T07:25:24;11.37;;;9.13;;
7047;SDS011;3565;53.254;10.352;2023-05-07T07:27:53;10.60;;;9.43;;
7047;SDS011;3565;53.254;10.352;2023-05-07T07:30:47;10.00;;;8.67;;
7047;SDS011;3565;53.254;10.352;2023-05-07T07:35:55;9.87;;;8.87;;
7047;SDS011;3565;53.254;10.352;2023-05-07T07:38:26;11.67;;;8.57;;
7047;SDS011;3565;53.254;10.352;2023-05-07T07:43:32;9.67;;;8.67;;
7047;SDS011;3565;53.254;10.352;2023-05-07T07:46:01;9.57;;;8.43;;
7047;SDS011;3565;53.254;10.352;2023-05-07T07:48:40;9.40;;;7.93;;
7047;SDS011;3565;53.254;10.352;2023-05-07T07:53:49;10.63;;;8.63;;
7047;SDS011;3565;53.254;10.352;2023-05-07T07:56:18;9.93;;;8.10;;
7047;SDS011;3565;53.254;10.352;2023-05-07T07:58:48;10.67;;;8.67;;
7047;SDS011;3565;53.254;10.352;2023-05-07T08:01:26;9.33;;;8.17;;
7047;SDS011;3565;53.254;10.352;2023-05-07T08:03:57;10.17;;;8.10;;
7047;SDS011;3565;53.254;10.352;2023-05-07T08:06:26;9.73;;;7.93;;
7047;SDS011;3565;53.254;10.352;2023-05-07T08:09:06;10.63;;;8.13;;
7047;SDS011;3565;53.254;10.352;2023-05-07T08:14:12;8.93;;;8.00;;
7047;SDS011;3565;53.254;10.352;2023-05-07T08:16:42;11.27;;;8.23;;
7047;SDS011;3565;53.254;10.352;2023-05-07T08:19:20;9.60;;;7.97;;
7047;SDS011;3565;53.254;10.352;2023-05-07T08:24:26;9.20;;;8.20;;
7047;SDS011;3565;53.254;10.352;2023-05-07T08:26:55;9.37;;;8.40;;
7047;SDS011;3565;53.254;10.352;2023-05-07T08:29:33;11.67;;;8.40;;
7047;SDS011;3565;53.254;10.352;2023-05-07T08:34:40;10.87;;;8.83;;
7047;SDS011;3565;53.254;10.352;2023-05-07T08:37:09;9.37;;;8.37;;
7047;SDS011;3565;53.254;10.352;2023-05-07T08:39:38;9.47;;;8.53;;
7047;SDS011;3565;53.254;10.352;2023-05-07T08:42:18;9.80;;;8.60;;
7047;SDS011;3565;53.254;10.352;2023-05-07T08:44:48;9.53;;;8.53;;
7047;SDS011;3565;53.254;10.352;2023-05-07T08:47:20;9.43;;;8.43;;
7047;SDS011;3565;53.254;10.352;2023-05-07T08:50:03;11.17;;;8.43;;
7047;SDS011;3565;53.254;10.352;2023-05-07T08:55:12;9.80;;;8.80;;
7047;SDS011;3565;53.254;10.352;2023-05-07T08:57:42;9.10;;;8.20;;
7047;SDS011;3565;53.254;10.352;2023-05-07T09:00:23;11.57;;;9.50;;
7047;SDS011;3565;53.254;10.352;2023-05-07T09:05:29;12.27;;;10.03;;
7047;SDS011;3565;53.254;10.352;2023-05-07T09:07:59;12.13;;;8.97;;
7047;SDS011;3565;53.254;10.352;2023-05-07T09:10:37;9.90;;;8.90;;
7047;SDS011;3565;53.254;10.352;2023-05-07T09:15:43;11.33;;;9.43;;
7047;SDS011;3565;53.254;10.352;2023-05-07T09:18:12;12.07;;;9.03;;
7047;SDS011;3565;53.254;10.352;2023-05-07T09:20:51;9.97;;;8.80;;
7047;SDS011;3565;53.254;10.352;2023-05-07T09:23:20;10.40;;;9.30;;
7047;SDS011;3565;53.254;10.352;2023-05-07T09:28:26;10.30;;;9.20;;
7047;SDS011;3565;53.254;10.352;2023-05-07T09:33:42;11.13;;;9.93;;
7047;SDS011;3565;53.254;10.352;2023-05-07T09:36:11;11.30;;;9.77;;
7047;SDS011;3565;53.254;10.352;2023-05-07T09:38:50;11.90;;;9.70;;
7047;SDS011;3565;53.254;10.352;2023-05-07T09:41:19;10.47;;;9.30;;
7047;SDS011;3565;53.254;10.352;2023-05-07T09:46:27;10.47;;;9.37;;
7047;SDS011;3565;53.254;10.352;2023-05-07T09:48:57;11.40;;;10.10;;
7047;SDS011;3565;53.254;10.352;2023-05-07T09:51:38;10.33;;;9.27;;
7047;SDS011;3565;53.254;10.352;2023-05-07T09:56:47;10.13;;;9.10;;
7047;SDS011;3565;53.254;10.352;2023-05-07T09:59:17;11.37;;;9.70;;
7047;SDS011;3565;53.254;10.352;2023-05-07T10:01:58;10.30;;;8.97;;
7047;SDS011;3565;53.254;10.352;2023-05-07T10:04:28;11.93;;;9.37;;
7047;SDS011;3565;53.254;10.352;2023-05-07T10:06:59;10.20;;;9.07;;
7047;SDS011;3565;53.254;10.352;2023-05-07T10:09:39;11.73;;;9.47;;
7047;SDS011;3565;53.254;10.352;2023-05-07T10:14:47;13.03;;;10.50;;
7047;SDS011;3565;53.254;10.352;2023-05-07T10:17:17;11.50;;;9.63;;
7047;SDS011;3565;53.254;10.352;2023-05-07T10:19:56;10.47;;;9.30;;
7047;SDS011;3565;53.254;10.352;2023-05-07T10:25:02;10.77;;;9.13;;
7047;SDS011;3565;53.254;10.352;2023-05-07T10:27:34;9.37;;;8.40;;
7047;SDS011;3565;53.254;10.352;2023-05-07T10:30:18;9.13;;;8.13;;
7047;SDS011;3565;53.254;10.352;2023-05-07T10:35:29;10.70;;;7.27;;
7047;SDS011;3565;53.254;10.352;2023-05-07T10:37:59;9.93;;;8.30;;
7047;SDS011;3565;53.254;10.352;2023-05-07T10:40:40;8.70;;;7.63;;
7047;SDS011;3565;53.254;10.352;2023-05-07T10:46:03;10.40;;;8.13;;
7047;SDS011;3565;53.254;10.352;2023-05-07T10:51:45;9.10;;;8.20;;
7047;SDS011;3565;53.254;10.352;2023-05-07T10:54:19;9.57;;;7.97;;
7047;SDS011;3565;53.254;10.352;2023-05-07T10:59:34;9.53;;;8.07;;
7047;SDS011;3565;53.254;10.352;2023-05-07T11:04:45;8.57;;;7.73;;
7047;SDS011;3565;53.254;10.352;2023-05-07T11:07:26;8.03;;;7.23;;
7047;SDS011;3565;53.254;10.352;2023-05-07T11:10:03;8.63;;;7.77;;
7047;SDS011;3565;53.254;10.352;2023-05-07T11:15:34;7.97;;;7.13;;
7047;SDS011;3565;53.254;10.352;2023-05-07T11:18:09;8.50;;;7.60;;
7047;SDS011;3565;53.254;10.352;2023-05-07T11:20:52;8.23;;;6.93;;
7047;SDS011;3565;53.254;10.352;2023-05-07T11:26:47;8.13;;;7.33;;
7047;SDS011;3565;53.254;10.352;2023-05-07T11:31:54;10.70;;;7.17;;
7047;SDS011;3565;53.254;10.352;2023-05-07T11:34:25;7.57;;;6.80;;
7047;SDS011;3565;53.254;10.352;2023-05-07T11:36:54;8.03;;;7.10;;
7047;SDS011;3565;53.254;10.352;2023-05-07T11:39:36;7.33;;;6.63;;
7047;SDS011;3565;53.254;10.352;2023-05-07T11:44:43;7.00;;;6.37;;
7047;SDS011;3565;53.254;10.352;2023-05-07T11:47:17;7.27;;;6.57;;
7047;SDS011;3565;53.254;10.352;2023-05-07T11:49:55;8.33;;;6.37;;
7047;SDS011;3565;53.254;10.352;2023-05-07T11:55:04;6.80;;;6.20;;
7047;SDS011;3565;53.254;10.352;2023-05-07T11:57:34;6.77;;;5.87;;
7047;SDS011;3565;53.254;10.352;2023-05-07T12:00:04;6.77;;;6.10;;
7047;SDS011;3565;53.254;10.352;2023-05-07T12:05:13;6.33;;;5.30;;
7047;SDS011;3565;53.254;10.352;2023-05-07T12:07:42;6.17;;;5.57;;
7047;SDS011;3565;53.254;10.352;2023-05-07T12:10:21;5.63;;;5.13;;
7047;SDS011;3565;53.254;10.352;2023-05-07T12:15:28;5.80;;;5.20;;
7047;SDS011;3565;53.254;10.352;2023-05-07T12:17:57;6.33;;;5.73;;
7047;SDS011;3565;53.254;10.352;2023-05-07T12:20:36;5.53;;;5.03;;
7047;SDS011;3565;53.254;10.352;2023-05-07T12:23:05;5.77;;;5.27;;
7047;SDS011;3565;53.254;10.352;2023-05-07T12:25:44;5.80;;;5.30;;
7047;SDS011;3565;53.254;10.352;2023-05-07T12:28:14;5.33;;;4.83;;
7047;SDS011;3565;53.254;10.352;2023-05-07T12:30:52;5.70;;;5.20;;
7047;SDS011;3565;53.254;10.352;2023-05-07T12:33:24;5.67;;;5.17;;
7047;SDS011;3565;53.254;10.352;2023-05-07T12:38:34;5.73;;;5.20;;
7047;SDS011;3565;53.254;10.352;2023-05-07T12:43:41;5.73;;;5.17;;
7047;SDS011;3565;53.254;10.352;2023-05-07T12:46:12;5.80;;;5.30;;
7047;SDS011;3565;53.254;10.352;2023-05-07T12:48:50;5.37;;;4.60;;
7047;SDS011;3565;53.254;10.352;2023-05-07T12:51:21;5.20;;;4.70;;
7047;SDS011;3565;53.254;10.352;2023-05-07T12:54:00;5.00;;;4.50;;
7047;SDS011;3565;53.254;10.352;2023-05-07T12:56:31;5.87;;;5.17;;
7047;SDS011;3565;53.254;10.352;2023-05-07T12:59:09;5.23;;;4.70;;
7047;SDS011;3565;53.254;10.352;2023-05-07T13:04:15;6.90;;;6.20;;
7047;SDS011;3565;53.254;10.352;2023-05-07T13:06:44;5.40;;;4.90;;
7047;SDS011;3565;53.254;10.352;2023-05-07T13:09:23;4.93;;;4.43;;
7047;SDS011;3565;53.254;10.352;2023-05-07T13:14:29;5.70;;;5.20;;
7047;SDS011;3565;53.254;10.352;2023-05-07T13:16:58;5.13;;;4.50;;
7047;SDS011;3565;53.254;10.352;2023-05-07T13:19:37;4.87;;;4.07;;
7047;SDS011;3565;53.254;10.352;2023-05-07T13:24:43;4.40;;;4.00;;
7047;SDS011;3565;53.254;10.352;2023-05-07T13:27:12;4.50;;;3.93;;
7047;SDS011;3565;53.254;10.352;2023-05-07T13:29:50;3.80;;;3.50;;
7047;SDS011;3565;53.254;10.352;2023-05-07T13:34:56;3.53;;;3.23;;
7047;SDS011;3565;53.254;10.352;2023-05-07T13:37:25;3.60;;;3.30;;
7047;SDS011;3565;53.254;10.352;2023-05-07T13:40:05;3.83;;;3.40;;
7047;SDS011;3565;53.254;10.352;2023-05-07T13:45:12;3.63;;;3.33;;
7047;SDS011;3565;53.254;10.352;2023-05-07T13:47:41;3.70;;;3.40;;
7047;SDS011;3565;53.254;10.352;2023-05-07T13:50:20;3.50;;;3.20;;
7047;SDS011;3565;53.254;10.352;2023-05-07T13:55:28;3.33;;;3.03;;
7047;SDS011;3565;53.254;10.352;2023-05-07T13:57:57;3.63;;;3.33;;
7047;SDS011;3565;53.254;10.352;2023-05-07T14:00:36;3.43;;;2.80;;
7047;SDS011;3565;53.254;10.352;2023-05-07T14:05:42;3.53;;;3.17;;
7047;SDS011;3565;53.254;10.352;2023-05-07T14:08:11;3.20;;;2.90;;
7047;SDS011;3565;53.254;10.352;2023-05-07T14:10:50;3.60;;;3.30;;
7047;SDS011;3565;53.254;10.352;2023-05-07T14:15:56;4.50;;;2.97;;
7047;SDS011;3565;53.254;10.352;2023-05-07T14:18:25;3.37;;;3.07;;
7047;SDS011;3565;53.254;10.352;2023-05-07T14:20:55;3.50;;;3.00;;
7047;SDS011;3565;53.254;10.352;2023-05-07T14:23:25;3.40;;;2.87;;
7047;SDS011;3565;53.254;10.352;2023-05-07T14:25:54;3.17;;;2.97;;
7047;SDS011;3565;53.254;10.352;2023-05-07T14:28:23;3.23;;;2.97;;
7047;SDS011;3565;53.254;10.352;2023-05-07T14:33:30;3.93;;;2.80;;
7047;SDS011;3565;53.254;10.352;2023-05-07T14:35:59;3.20;;;2.90;;
7047;SDS011;3565;53.254;10.352;2023-05-07T14:38:29;4.07;;;2.77;;
7047;SDS011;3565;53.254;10.352;2023-05-07T14:40:59;3.73;;;3.10;;
7047;SDS011;3565;53.254;10.352;2023-05-07T14:43:28;3.00;;;2.77;;
7047;SDS011;3565;53.254;10.352;2023-05-07T14:45:57;2.97;;;2.47;;
7047;SDS011;3565;53.254;10.352;2023-05-07T14:48:26;2.80;;;2.60;;
7047;SDS011;3565;53.254;10.352;2023-05-07T14:50:55;3.30;;;3.00;;
7047;SDS011;3565;53.254;10.352;2023-05-07T14:53:34;3.30;;;2.97;;
7047;SDS011;3565;53.254;10.352;2023-05-07T14:58:40;3.03;;;2.73;;
7047;SDS011;3565;53.254;10.352;2023-05-07T15:03:46;3.27;;;2.97;;
7047;SDS011;3565;53.254;10.352;2023-05-07T15:06:15;3.10;;;2.80;;
7047;SDS011;3565;53.254;10.352;2023-05-07T15:08:54;4.67;;;3.00;;
7047;SDS011;3565;53.254;10.352;2023-05-07T15:11:23;3.73;;;2.97;;
7047;SDS011;3565;53.254;10.352;2023-05-07T15:16:30;2.97;;;2.77;;
7047;SDS011;3565;53.254;10.352;2023-05-07T15:19:00;3.20;;;2.90;;
7047;SDS011;3565;53.254;10.352;2023-05-07T15:21:30;3.37;;;3.07;;
7047;SDS011;3565;53.254;10.352;2023-05-07T15:24:08;3.43;;;3.00;;
7047;SDS011;3565;53.254;10.352;2023-05-07T15:29:14;3.10;;;2.80;;
7047;SDS011;3565;53.254;10.352;2023-05-07T15:34:23;3.00;;;2.80;;
7047;SDS011;3565;53.254;10.352;2023-05-07T15:36:52;4.23;;;2.87;;
7047;SDS011;3565;53.254;10.352;2023-05-07T15:39:23;4.00;;;2.80;;
7047;SDS011;3565;53.254;10.352;2023-05-07T15:41:52;3.70;;;2.70;;
7047;SDS011;3565;53.254;10.352;2023-05-07T15:44:21;3.87;;;2.80;;
7047;SDS011;3565;53.254;10.352;2023-05-07T15:46:52;2.80;;;2.60;;
7047;SDS011;3565;53.254;10.352;2023-05-07T15:49:21;4.00;;;3.00;;
7047;SDS011;3565;53.254;10.352;2023-05-07T15:51:50;3.30;;;3.00;;
7047;SDS011;3565;53.254;10.352;2023-05-07T15:54:20;3.33;;;2.90;;
7047;SDS011;3565;53.254;10.352;2023-05-07T15:56:50;3.80;;;2.97;;
7047;SDS011;3565;53.254;10.352;2023-05-07T15:59:19;3.37;;;2.90;;
7047;SDS011;3565;53.254;10.352;2023-05-07T16:04:26;3.30;;;3.00;;
7047;SDS011;3565;53.254;10.352;2023-05-07T16:06:55;3.33;;;3.03;;
7047;SDS011;3565;53.254;10.352;2023-05-07T16:09:24;3.13;;;2.80;;
7047;SDS011;3565;53.254;10.352;2023-05-07T16:11:54;3.43;;;3.13;;
7047;SDS011;3565;53.254;10.352;2023-05-07T16:14:23;3.17;;;2.93;;
7047;SDS011;3565;53.254;10.352;2023-05-07T16:16:52;4.43;;;3.10;;
7047;SDS011;3565;53.254;10.352;2023-05-07T16:19:22;3.50;;;2.90;;
7047;SDS011;3565;53.254;10.352;2023-05-07T16:21:51;5.13;;;3.20;;
7047;SDS011;3565;53.254;10.352;2023-05-07T16:24:21;3.73;;;3.40;;
7047;SDS011;3565;53.254;10.352;2023-05-07T16:26:50;5.20;;;3.97;;
7047;SDS011;3565;53.254;10.352;2023-05-07T16:29:19;3.50;;;2.90;;
7047;SDS011;3565;53.254;10.352;2023-05-07T16:31:49;3.97;;;3.50;;
7047;SDS011;3565;53.254;10.352;2023-05-07T16:34:19;3.70;;;3.40;;
7047;SDS011;3565;53.254;10.352;2023-05-07T16:39:25;5.03;;;4.50;;
7047;SDS011;3565;53.254;10.352;2023-05-07T16:41:55;3.43;;;3.13;;
7047;SDS011;3565;53.254;10.352;2023-05-07T16:44:24;5.57;;;4.93;;
7047;SDS011;3565;53.254;10.352;2023-05-07T16:49:30;3.43;;;3.00;;
7047;SDS011;3565;53.254;10.352;2023-05-07T16:52:00;3.70;;;3.20;;
7047;SDS011;3565;53.254;10.352;2023-05-07T16:54:38;4.23;;;3.30;;
7047;SDS011;3565;53.254;10.352;2023-05-07T16:59:44;4.43;;;2.90;;
7047;SDS011;3565;53.254;10.352;2023-05-07T17:02:13;4.23;;;3.03;;
7047;SDS011;3565;53.254;10.352;2023-05-07T17:04:51;3.63;;;2.90;;
7047;SDS011;3565;53.254;10.352;2023-05-07T17:07:21;4.93;;;3.10;;
7047;SDS011;3565;53.254;10.352;2023-05-07T17:12:28;3.50;;;3.20;;
7047;SDS011;3565;53.254;10.352;2023-05-07T17:14:59;3.10;;;2.90;;
7047;SDS011;3565;53.254;10.352;2023-05-07T17:17:39;4.37;;;3.00;;
7047;SDS011;3565;53.254;10.352;2023-05-07T17:22:49;4.07;;;2.93;;
7047;SDS011;3565;53.254;10.352;2023-05-07T17:25:18;3.90;;;3.17;;
7047;SDS011;3565;53.254;10.352;2023-05-07T17:27:49;5.60;;;3.20;;
7047;SDS011;3565;53.254;10.352;2023-05-07T17:32:55;3.70;;;3.40;;
7047;SDS011;3565;53.254;10.352;2023-05-07T17:35:25;3.73;;;3.23;;
7047;SDS011;3565;53.254;10.352;2023-05-07T17:40:31;3.50;;;3.10;;
7047;SDS011;3565;53.254;10.352;2023-05-07T17:43:00;3.70;;;3.10;;
7047;SDS011;3565;53.254;10.352;2023-05-07T17:45:39;4.83;;;3.10;;
7047;SDS011;3565;53.254;10.352;2023-05-07T17:50:45;3.50;;;3.20;;
7047;SDS011;3565;53.254;10.352;2023-05-07T17:53:14;4.20;;;2.90;;
7047;SDS011;3565;53.254;10.352;2023-05-07T17:55:53;4.87;;;3.13;;
7047;SDS011;3565;53.254;10.352;2023-05-07T17:58:22;3.33;;;2.90;;
7047;SDS011;3565;53.254;10.352;2023-05-07T18:03:30;3.20;;;3.00;;
7047;SDS011;3565;53.254;10.352;2023-05-07T18:06:01;3.67;;;2.97;;
7047;SDS011;3565;53.254;10.352;2023-05-07T18:08:39;3.67;;;2.80;;
7047;SDS011;3565;53.254;10.352;2023-05-07T18:13:45;3.30;;;3.00;;
7047;SDS011;3565;53.254;10.352;2023-05-07T18:16:14;3.40;;;3.10;;
7047;SDS011;3565;53.254;10.352;2023-05-07T18:18:53;3.33;;;3.03;;
7047;SDS011;3565;53.254;10.352;2023-05-07T18:21:22;6.10;;;4.70;;
7047;SDS011;3565;53.254;10.352;2023-05-07T18:23:52;4.83;;;3.20;;
7047;SDS011;3565;53.254;10.352;2023-05-07T18:26:30;4.23;;;3.80;;
7047;SDS011;3565;53.254;10.352;2023-05-07T18:31:36;6.20;;;5.60;;
7047;SDS011;3565;53.254;10.352;2023-05-07T18:34:05;5.50;;;5.00;;
7047;SDS011;3565;53.254;10.352;2023-05-07T18:36:44;3.70;;;3.30;;
7047;SDS011;3565;53.254;10.352;2023-05-07T18:41:50;4.73;;;3.43;;
7047;SDS011;3565;53.254;10.352;2023-05-07T18:44:19;5.93;;;3.40;;
7047;SDS011;3565;53.254;10.352;2023-05-07T18:46:48;3.60;;;3.30;;
7047;SDS011;3565;53.254;10.352;2023-05-07T18:49:18;4.23;;;2.93;;
7047;SDS011;3565;53.254;10.352;2023-05-07T18:51:48;3.73;;;3.33;;
7047;SDS011;3565;53.254;10.352;2023-05-07T18:54:18;3.50;;;3.20;;
7047;SDS011;3565;53.254;10.352;2023-05-07T18:56:47;4.50;;;3.40;;
7047;SDS011;3565;53.254;10.352;2023-05-07T18:59:16;3.47;;;3.17;;
7047;SDS011;3565;53.254;10.352;2023-05-07T19:01:46;3.50;;;3.20;;
7047;SDS011;3565;53.254;10.352;2023-05-07T19:06:52;4.63;;;3.40;;
7047;SDS011;3565;53.254;10.352;2023-05-07T19:09:22;3.40;;;3.10;;
7047;SDS011;3565;53.254;10.352;2023-05-07T19:11:51;4.10;;;3.70;;
7047;SDS011;3565;53.254;10.352;2023-05-07T19:14:22;4.40;;;3.60;;
7047;SDS011;3565;53.254;10.352;2023-05-07T19:16:51;3.80;;;3.50;;
7047;SDS011;3565;53.254;10.352;2023-05-07T19:19:20;4.73;;;3.57;;
7047;SDS011;3565;53.254;10.352;2023-05-07T19:21:49;4.43;;;3.80;;
7047;SDS011;3565;53.254;10.352;2023-05-07T19:24:18;4.67;;;3.60;;
7047;SDS011;3565;53.254;10.352;2023-05-07T19:26:47;3.93;;;3.47;;
7047;SDS011;3565;53.254;10.352;2023-05-07T19:31:53;4.10;;;3.77;;
7047;SDS011;3565;53.254;10.352;2023-05-07T19:34:22;3.90;;;3.60;;
7047;SDS011;3565;53.254;10.352;2023-05-07T19:36:51;3.67;;;3.37;;
7047;SDS011;3565;53.254;10.352;2023-05-07T19:39:20;4.43;;;4.03;;
7047;SDS011;3565;53.254;10.352;2023-05-07T19:41:59;4.50;;;4.10;;